Scot Munchen — 9HA4098 — position and weather

sailwx.info

Track history (hours):
 
Tides and Currents Weather Stations Pressure Air Temp Water Temp Dewpoint Dewpoint Depression Visibility Wind Speed Wind Dir Waves Ship Positions

Scot Munchen

Last reported at 2017-Oct-14 08:39 UTC. Time now 2017-Oct-22 19:03 UTC.
Position N 19°05' W 063°12'.
Warning: this ship's position is 8 days out of date.

Length 117 m; draft 5.5 m.

Type: Ship. MMSI: 249068000.

Date/timePositionNaut miles runAvg speedWind from/ knotsBaromVisibWave heightAir tempDewpointWater temp
2017-Oct-14 08:39N 19°05' W 063°12'2 9.0
2017-Oct-14 08:28N 19°05' W 063°14'  
2017-Oct-07 07:06N 29°23' W 094°49'112.1
2017-Oct-07 07:00N 29°24' W 094°49'611.0
2017-Oct-07 06:29N 29°30' W 094°52'510.6
2017-Oct-07 06:00N 29°34' W 094°55'5 9.4
2017-Oct-07 05:30N 29°38' W 094°58'4 8.1
2017-Oct-07 05:00N 29°42' W 094°59'4 7.2
2017-Oct-07 04:31N 29°44' W 095°03'3 5.3
2017-Oct-07 03:56N 29°45' W 095°06'3 6.2
2017-Oct-07 03:30N 29°44' W 095°09'4 5.5
2017-Oct-07 02:52N 29°43' W 095°13'2 6.3
2017-Oct-07 02:30N 29°44' W 095°16'2 3.7
2017-Oct-07 02:00N 29°45' W 095°17'0 0.0
2017-Oct-06 18:26N 29°45' W 095°17'0 0.0
2017-Oct-06 17:50N 29°45' W 095°17'0 0.0
2017-Oct-06 17:14N 29°45' W 095°17'0 0.0
2017-Oct-06 16:44N 29°45' W 095°17'0 0.0
2017-Oct-06 16:26N 29°45' W 095°17'0 0.0
2017-Oct-06 15:56N 29°45' W 095°17'0 0.0
2017-Oct-06 15:26N 29°45' W 095°17'0 0.0
2017-Oct-06 14:44N 29°45' W 095°17'0 0.0
2017-Oct-06 14:20N 29°45' W 095°17'0 0.0
2017-Oct-06 12:26N 29°45' W 095°17'0 0.0
2017-Oct-06 07:02N 29°45' W 095°17'0 0.1
2017-Oct-06 06:56N 29°45' W 095°17'0 0.0
2017-Oct-06 06:20N 29°45' W 095°17'0 0.0
2017-Oct-06 05:56N 29°45' W 095°17'0 0.0
2017-Oct-06 05:29N 29°45' W 095°17'0 0.0
2017-Oct-06 04:56N 29°45' W 095°17'0 0.0
2017-Oct-06 04:26N 29°45' W 095°17'0 0.0
2017-Oct-06 03:56N 29°45' W 095°17'0 0.0
2017-Oct-06 03:14N 29°45' W 095°17'0 0.0
2017-Oct-06 02:56N 29°45' W 095°17'0 0.0
2017-Oct-06 02:26N 29°45' W 095°17'0 0.0
2017-Oct-06 01:50N 29°45' W 095°17'0 0.0
2017-Oct-06 01:14N 29°45' W 095°17'0 0.0
2017-Oct-06 00:44N 29°45' W 095°17'0 0.0
2017-Oct-06 00:20N 29°45' W 095°17'0 0.0
2017-Oct-05 23:56N 29°45' W 095°17'0 0.0
2017-Oct-05 22:20N 29°45' W 095°17'0 0.0
2017-Oct-05 21:56N 29°45' W 095°17'0 0.0
2017-Oct-05 20:20N 29°45' W 095°17'0 0.0
2017-Oct-05 19:56N 29°45' W 095°17'0 0.0
2017-Oct-05 19:30N 29°45' W 095°17'0 0.3
2017-Oct-05 18:59N 29°45' W 095°17'3 5.3
2017-Oct-05 18:30N 29°43' W 095°15'3 5.9
2017-Oct-05 18:00N 29°45' W 095°12'3 6.8
2017-Oct-05 17:31N 29°44' W 095°08'4 7.5
2017-Oct-05 17:01N 29°45' W 095°04'1510.2
2017-Oct-05 15:30N 29°32' W 094°54'  
Track history (hours):
 
Tides and Currents Weather Stations Pressure Air Temp Water Temp Dewpoint Dewpoint Depression Visibility Wind Speed Wind Dir Waves Ship Positions

Scot Munchen

Last reported at 2017-Oct-14 08:39 UTC. Time now 2017-Oct-22 19:03 UTC.
Position N 19°05' W 063°12'.
Warning: this ship's position is 8 days out of date.

Length 117 m; draft 5.5 m.

Type: Ship. MMSI: 249068000.

Date/timePositionNaut miles runAvg speedWind from/ knotsBaromVisibWave heightAir tempDewpointWater temp
2017-Oct-14 08:39N 19°05' W 063°12'2 9.0
2017-Oct-14 08:28N 19°05' W 063°14'  
2017-Oct-07 07:06N 29°23' W 094°49'112.1
2017-Oct-07 07:00N 29°24' W 094°49'611.0
2017-Oct-07 06:29N 29°30' W 094°52'510.6
2017-Oct-07 06:00N 29°34' W 094°55'5 9.4
2017-Oct-07 05:30N 29°38' W 094°58'4 8.1
2017-Oct-07 05:00N 29°42' W 094°59'4 7.2
2017-Oct-07 04:31N 29°44' W 095°03'3 5.3
2017-Oct-07 03:56N 29°45' W 095°06'3 6.2
2017-Oct-07 03:30N 29°44' W 095°09'4 5.5
2017-Oct-07 02:52N 29°43' W 095°13'2 6.3
2017-Oct-07 02:30N 29°44' W 095°16'2 3.7
2017-Oct-07 02:00N 29°45' W 095°17'0 0.0
2017-Oct-06 18:26N 29°45' W 095°17'0 0.0
2017-Oct-06 17:50N 29°45' W 095°17'0 0.0
2017-Oct-06 17:14N 29°45' W 095°17'0 0.0
2017-Oct-06 16:44N 29°45' W 095°17'0 0.0
2017-Oct-06 16:26N 29°45' W 095°17'0 0.0
2017-Oct-06 15:56N 29°45' W 095°17'0 0.0
2017-Oct-06 15:26N 29°45' W 095°17'0 0.0
2017-Oct-06 14:44N 29°45' W 095°17'0 0.0
2017-Oct-06 14:20N 29°45' W 095°17'0 0.0
2017-Oct-06 12:26N 29°45' W 095°17'0 0.0
2017-Oct-06 07:02N 29°45' W 095°17'0 0.1
2017-Oct-06 06:56N 29°45' W 095°17'0 0.0
2017-Oct-06 06:20N 29°45' W 095°17'0 0.0
2017-Oct-06 05:56N 29°45' W 095°17'0 0.0
2017-Oct-06 05:29N 29°45' W 095°17'0 0.0
2017-Oct-06 04:56N 29°45' W 095°17'0 0.0
2017-Oct-06 04:26N 29°45' W 095°17'0 0.0
2017-Oct-06 03:56N 29°45' W 095°17'0 0.0
2017-Oct-06 03:14N 29°45' W 095°17'0 0.0
2017-Oct-06 02:56N 29°45' W 095°17'0 0.0
2017-Oct-06 02:26N 29°45' W 095°17'0 0.0
2017-Oct-06 01:50N 29°45' W 095°17'0 0.0
2017-Oct-06 01:14N 29°45' W 095°17'0 0.0
2017-Oct-06 00:44N 29°45' W 095°17'0 0.0
2017-Oct-06 00:20N 29°45' W 095°17'0 0.0
2017-Oct-05 23:56N 29°45' W 095°17'0 0.0
2017-Oct-05 22:20N 29°45' W 095°17'0 0.0
2017-Oct-05 21:56N 29°45' W 095°17'0 0.0
2017-Oct-05 20:20N 29°45' W 095°17'0 0.0
2017-Oct-05 19:56N 29°45' W 095°17'0 0.0
2017-Oct-05 19:30N 29°45' W 095°17'0 0.3
2017-Oct-05 18:59N 29°45' W 095°17'3 5.3
2017-Oct-05 18:30N 29°43' W 095°15'3 5.9
2017-Oct-05 18:00N 29°45' W 095°12'3 6.8
2017-Oct-05 17:31N 29°44' W 095°08'4 7.5
2017-Oct-05 17:01N 29°45' W 095°04'1510.2
2017-Oct-05 15:30N 29°32' W 094°54'  

Dump ship's entire track history